Time;durP1;ratioP1;P1;durP2;ratioP2;P2;SDS_P1;SDS_P2;PMS_P1;PMS_P2;Temp;Humidity;BMP_temperature;BMP_pressure;BME280_temperature;BME280_humidity;BME280_pressure;Samples;Min_cycle;Max_cycle;Signal;HPM_P1;HPM_P2
2022/10/30 00:00:38;;;;;;;14.98;5.32;;;15.40;92.40;;;;;;4954209;28;20367;-64
2022/10/30 00:03:04;;;;;;;12.38;6.30;;;15.40;92.60;;;;;;4954412;28;20035;-64
2022/10/30 00:05:29;;;;;;;12.93;5.90;;;15.40;92.40;;;;;;4954294;28;20031;-64
2022/10/30 00:07:56;;;;;;;12.15;5.55;;;15.40;92.50;;;;;;4954415;28;20130;-64
2022/10/30 00:10:22;;;;;;;9.15;6.10;;;15.40;92.60;;;;;;4954294;28;20470;-64
2022/10/30 00:12:48;;;;;;;12.52;6.22;;;15.40;92.60;;;;;;4954118;28;20075;-64
2022/10/30 00:15:14;;;;;;;10.65;5.00;;;15.40;92.60;;;;;;4956024;28;20074;-64
2022/10/30 00:17:39;;;;;;;13.10;5.95;;;15.40;92.60;;;;;;4957948;28;20046;-64
2022/10/30 00:20:06;;;;;;;11.50;5.13;;;15.30;92.50;;;;;;4957927;28;20450;-64
2022/10/30 00:22:33;;;;;;;11.13;5.30;;;15.30;92.50;;;;;;4957624;28;20059;-64
2022/10/30 00:24:59;;;;;;;13.20;6.05;;;15.30;92.60;;;;;;4957567;28;20035;-64
2022/10/30 00:27:25;;;;;;;16.60;6.03;;;15.30;92.50;;;;;;4957411;28;20569;-64
2022/10/30 00:29:51;;;;;;;13.43;5.43;;;15.20;92.40;;;;;;4957579;28;20073;-64
2022/10/30 00:32:17;;;;;;;11.32;6.20;;;15.20;92.30;;;;;;4957846;28;20055;-64
2022/10/30 00:34:42;;;;;;;9.73;5.28;;;15.20;92.40;;;;;;4957579;28;20118;-64
2022/10/30 00:37:08;;;;;;;18.08;5.78;;;15.20;92.30;;;;;;4957581;28;20390;-64
2022/10/30 00:39:34;;;;;;;9.43;5.68;;;15.20;92.30;;;;;;4957582;28;20035;-64
2022/10/30 00:41:59;;;;;;;13.13;6.15;;;15.10;92.30;;;;;;4957324;28;20059;-64
2022/10/30 00:44:39;;;;;;;11.70;6.38;;;15.10;92.30;;;;;;4957500;28;20110;-64
2022/10/30 00:47:36;;;;;;;9.00;6.03;;;15.10;92.40;;;;;;4957455;28;20035;-64
2022/10/30 00:50:20;;;;;;;13.75;5.80;;;15.10;92.40;;;;;;4956971;28;20604;-64
2022/10/30 00:52:55;;;;;;;12.00;6.00;;;15.10;92.40;;;;;;4957066;28;20075;-63
2022/10/30 00:55:33;;;;;;;12.32;5.63;;;15.10;92.40;;;;;;4956949;28;20067;-64
2022/10/30 00:58:01;;;;;;;12.68;5.72;;;15.10;92.40;;;;;;4957477;28;20110;-64
2022/10/30 01:00:28;;;;;;;12.95;5.97;;;15.00;92.40;;;;;;4957188;28;20381;-64
2022/10/30 01:02:55;;;;;;;9.68;6.20;;;15.00;92.50;;;;;;4956872;28;20035;-64
2022/10/30 01:05:24;;;;;;;10.52;5.55;;;15.00;92.50;;;;;;4956936;28;20045;-64
2022/10/30 01:07:49;;;;;;;11.38;5.72;;;14.90;92.40;;;;;;4957262;28;20125;-64
2022/10/30 01:10:17;;;;;;;11.45;5.80;;;15.00;92.60;;;;;;4956846;28;20110;-64
2022/10/30 01:12:45;;;;;;;11.38;5.10;;;14.90;92.50;;;;;;4956977;28;20090;-64
2022/10/30 01:15:12;;;;;;;15.20;5.32;;;14.90;92.50;;;;;;4956603;28;20506;-64
2022/10/30 01:18:09;;;;;;;5.88;4.97;;;14.90;92.70;;;;;;4956661;28;20035;-64
2022/10/30 01:20:58;;;;;;;12.65;5.80;;;14.90;92.60;;;;;;4952792;29;20102;-64
2022/10/30 01:23:38;;;;;;;8.95;5.15;;;14.90;92.70;;;;;;4952905;29;20034;-64
2022/10/30 01:26:26;;;;;;;8.48;5.07;;;14.90;92.60;;;;;;4955835;28;20035;-64
2022/10/30 01:29:12;;;;;;;10.38;5.30;;;14.80;92.50;;;;;;4956271;29;20421;-64
2022/10/30 01:31:46;;;;;;;14.65;5.00;;;14.80;92.60;;;;;;4945630;28;20039;-63
2022/10/30 01:34:38;;;;;;;10.48;4.97;;;14.90;92.60;;;;;;4956686;28;20047;-63
2022/10/30 01:37:23;;;;;;;11.95;4.60;;;14.80;92.60;;;;;;4956611;28;20483;-64
2022/10/30 01:39:49;;;;;;;9.35;4.90;;;14.80;92.60;;;;;;4956491;28;20102;-64
2022/10/30 01:42:53;;;;;;;12.65;4.47;;;14.80;92.80;;;;;;4956540;28;20035;-64
2022/10/30 01:45:44;;;;;;;7.85;4.47;;;14.80;92.80;;;;;;4956265;28;20079;-64
2022/10/30 01:48:21;;;;;;;12.32;4.85;;;14.80;92.90;;;;;;4956423;28;20106;-64
2022/10/30 01:50:59;;;;;;;10.70;4.75;;;14.80;92.80;;;;;;4956199;28;20053;-64
2022/10/30 01:53:34;;;;;;;9.43;4.65;;;14.80;92.90;;;;;;4956475;28;20057;-64
2022/10/30 01:56:36;;;;;;;12.10;4.95;;;14.80;92.80;;;;;;4956292;28;20484;-64
2022/10/30 01:59:15;;;;;;;8.80;4.25;;;14.80;92.90;;;;;;4953462;28;20114;-64
2022/10/30 02:01:42;;;;;;;10.23;4.72;;;14.70;92.80;;;;;;4953160;28;20568;-64
2022/10/30 02:04:10;;;;;;;15.27;4.60;;;14.70;92.70;;;;;;4953695;28;20605;-64
2022/10/30 02:06:39;;;;;;;7.68;4.07;;;14.70;92.60;;;;;;4955412;28;20032;-64
2022/10/30 02:09:05;;;;;;;9.07;4.57;;;14.70;92.50;;;;;;4954538;29;20036;-64
2022/10/30 02:11:34;;;;;;;15.13;4.35;;;14.70;92.50;;;;;;4955887;28;20041;-64
2022/10/30 02:14:04;;;;;;;8.90;4.65;;;14.70;92.50;;;;;;4955183;28;20087;-64
2022/10/30 02:16:33;;;;;;;11.60;4.85;;;14.70;92.50;;;;;;4955856;28;20039;-64
2022/10/30 02:19:00;;;;;;;11.98;4.90;;;14.70;92.80;;;;;;4955658;28;20043;-65
2022/10/30 02:21:26;;;;;;;9.82;5.00;;;14.60;92.50;;;;;;4955575;28;20043;-72
2022/10/30 02:23:52;;;;;;;14.43;4.97;;;14.60;92.50;;;;;;4955478;28;20046;-64
2022/10/30 02:26:17;;;;;;;14.13;5.72;;;14.50;92.60;;;;;;4955628;28;20035;-64
2022/10/30 02:28:43;;;;;;;10.80;4.93;;;14.50;92.70;;;;;;4955058;28;20039;-69
2022/10/30 02:31:09;;;;;;;9.27;5.07;;;14.50;92.50;;;;;;4955476;28;20420;-64
2022/10/30 02:33:34;;;;;;;12.75;5.68;;;14.40;92.60;;;;;;4955444;28;20402;-64
2022/10/30 02:36:00;;;;;;;10.25;4.85;;;14.40;92.70;;;;;;4955162;28;20031;-64
2022/10/30 02:38:25;;;;;;;11.57;4.85;;;14.40;92.70;;;;;;4955049;28;20069;-64
2022/10/30 02:40:51;;;;;;;13.43;4.78;;;14.40;92.90;;;;;;4955259;28;20118;-65
2022/10/30 02:43:17;;;;;;;12.43;4.70;;;14.40;92.80;;;;;;4955208;28;20097;-64
2022/10/30 02:45:42;;;;;;;7.93;4.25;;;14.40;92.80;;;;;;4955513;28;20032;-64
2022/10/30 02:48:08;;;;;;;15.32;4.60;;;14.40;92.80;;;;;;4955490;28;20039;-64
2022/10/30 02:50:34;;;;;;;8.07;4.47;;;14.40;93.00;;;;;;4954980;28;20109;-64
2022/10/30 02:52:59;;;;;;;13.70;5.03;;;14.40;92.70;;;;;;4955171;28;20054;-64
2022/10/30 02:55:25;;;;;;;12.95;5.07;;;14.40;92.70;;;;;;4955158;28;20054;-64
2022/10/30 02:57:51;;;;;;;11.45;5.40;;;14.30;92.70;;;;;;4955012;28;20097;-64
2022/10/30 03:00:17;;;;;;;8.00;4.47;;;14.30;92.80;;;;;;4954948;28;20042;-64
2022/10/30 03:02:42;;;;;;;9.93;4.65;;;14.30;92.80;;;;;;4955093;28;20114;-64
2022/10/30 03:05:08;;;;;;;13.40;4.80;;;14.30;92.80;;;;;;4954988;28;20042;-64
2022/10/30 03:07:34;;;;;;;9.88;4.35;;;14.30;92.80;;;;;;4954926;28;20035;-64
2022/10/30 03:09:59;;;;;;;12.20;4.25;;;14.40;92.70;;;;;;4955254;28;20182;-64
2022/10/30 03:12:25;;;;;;;14.68;5.25;;;14.40;92.70;;;;;;4954918;28;20042;-65
2022/10/30 03:14:50;;;;;;;9.55;4.57;;;14.30;92.70;;;;;;4954486;28;20050;-64
2022/10/30 03:17:16;;;;;;;12.48;4.75;;;14.30;92.70;;;;;;4954909;28;20032;-64
2022/10/30 03:19:42;;;;;;;16.13;5.00;;;14.30;92.60;;;;;;4954835;28;20039;-64
2022/10/30 03:22:07;;;;;;;12.25;4.07;;;14.30;92.70;;;;;;4954666;28;20035;-64
2022/10/30 03:24:33;;;;;;;7.25;3.83;;;14.30;92.60;;;;;;4954949;28;20032;-64
2022/10/30 03:26:59;;;;;;;8.70;3.58;;;14.30;92.60;;;;;;4954823;28;20043;-64
2022/10/30 03:29:24;;;;;;;8.93;3.55;;;14.20;92.70;;;;;;4954748;28;20450;-64
2022/10/30 03:31:50;;;;;;;8.57;3.60;;;14.20;92.60;;;;;;4954542;28;20397;-64
2022/10/30 03:34:16;;;;;;;7.72;3.45;;;14.20;92.70;;;;;;4954403;28;20118;-64
2022/10/30 03:36:41;;;;;;;9.30;3.22;;;14.20;92.70;;;;;;4954706;28;20051;-64
2022/10/30 03:39:07;;;;;;;12.75;3.67;;;14.20;92.70;;;;;;4954515;28;20043;-64
2022/10/30 03:41:33;;;;;;;8.30;3.72;;;14.20;92.70;;;;;;4954818;28;20110;-64
2022/10/30 03:43:59;;;;;;;11.65;3.78;;;14.10;92.70;;;;;;4954511;28;20474;-64
2022/10/30 03:46:24;;;;;;;10.60;3.65;;;14.10;92.80;;;;;;4954186;28;20393;-64
2022/10/30 03:48:50;;;;;;;9.70;3.70;;;14.10;92.80;;;;;;4954285;28;20055;-64
2022/10/30 03:51:16;;;;;;;11.32;3.72;;;14.10;92.80;;;;;;4958275;28;20035;-64
2022/10/30 03:53:42;;;;;;;8.63;3.58;;;14.00;92.70;;;;;;4958182;28;20083;-64
2022/10/30 03:56:09;;;;;;;11.80;4.40;;;14.10;92.70;;;;;;4958471;28;20067;-64
2022/10/30 03:58:34;;;;;;;13.18;3.78;;;14.00;92.70;;;;;;4958372;28;20047;-64
2022/10/30 04:01:05;;;;;;;8.45;3.58;;;14.00;92.80;;;;;;4958291;28;20406;-64
2022/10/30 04:03:31;;;;;;;9.75;3.85;;;14.10;92.90;;;;;;4958148;28;20090;-64
2022/10/30 04:05:57;;;;;;;8.35;3.70;;;14.00;92.80;;;;;;4957999;28;20042;-65
2022/10/30 04:08:23;;;;;;;10.73;3.83;;;14.00;92.80;;;;;;4958032;28;20035;-64
2022/10/30 04:10:48;;;;;;;9.88;3.28;;;14.00;92.90;;;;;;4957838;28;20035;-64
2022/10/30 04:13:15;;;;;;;9.13;3.85;;;14.00;93.10;;;;;;4967057;28;20050;-64
2022/10/30 04:15:41;;;;;;;7.75;3.78;;;14.00;93.00;;;;;;4977162;28;20042;-64
2022/10/30 04:18:11;;;;;;;8.30;3.90;;;14.00;92.90;;;;;;4977430;28;20062;-64
2022/10/30 04:20:36;;;;;;;6.95;3.33;;;14.00;92.80;;;;;;4977287;28;20062;-64
2022/10/30 04:23:05;;;;;;;19.20;4.93;;;14.00;92.80;;;;;;4977049;28;20073;-65
2022/10/30 04:25:33;;;;;;;10.38;3.80;;;14.00;92.90;;;;;;4976954;28;20066;-64
2022/10/30 04:27:58;;;;;;;6.03;3.65;;;14.00;92.80;;;;;;4977225;28;20058;-63
2022/10/30 04:30:26;;;;;;;9.82;4.15;;;13.90;92.80;;;;;;4976648;28;20073;-64
2022/10/30 04:32:54;;;;;;;15.18;4.10;;;14.00;92.90;;;;;;4976962;28;20176;-64
2022/10/30 04:35:22;;;;;;;7.40;3.60;;;14.00;92.80;;;;;;4976695;28;20062;-64
2022/10/30 04:37:53;;;;;;;9.63;4.05;;;14.00;93.10;;;;;;4976999;28;20030;-64
2022/10/30 04:40:19;;;;;;;6.82;3.97;;;14.00;92.90;;;;;;4976629;28;20039;-64
2022/10/30 04:42:48;;;;;;;6.80;4.28;;;13.90;92.90;;;;;;4976913;28;20397;-65
2022/10/30 04:45:14;;;;;;;8.70;3.50;;;13.90;92.90;;;;;;4976662;28;20121;-64
2022/10/30 04:47:39;;;;;;;9.30;4.05;;;13.90;92.80;;;;;;4976663;28;20114;-64
2022/10/30 04:50:06;;;;;;;7.57;3.78;;;13.90;92.90;;;;;;4976529;28;20102;-64
2022/10/30 04:52:31;;;;;;;10.07;3.38;;;13.90;92.70;;;;;;4976697;28;20042;-64
2022/10/30 04:54:57;;;;;;;8.43;4.05;;;13.90;92.70;;;;;;4975362;28;20050;-64
2022/10/30 04:57:23;;;;;;;9.43;3.58;;;13.80;92.70;;;;;;4976809;28;20034;-64
2022/10/30 04:59:48;;;;;;;11.43;3.75;;;13.80;92.70;;;;;;4976393;28;20035;-65
2022/10/30 05:02:14;;;;;;;7.25;3.88;;;13.80;92.80;;;;;;4976192;28;20141;-64
2022/10/30 05:04:40;;;;;;;7.18;3.20;;;13.80;92.80;;;;;;4976730;28;20031;-64
2022/10/30 05:07:06;;;;;;;8.15;3.40;;;13.80;92.70;;;;;;4976538;28;20401;-64
2022/10/30 05:09:32;;;;;;;8.00;3.38;;;13.70;92.70;;;;;;4976691;28;20043;-65
2022/10/30 05:11:57;;;;;;;6.50;3.10;;;13.70;92.60;;;;;;4976264;28;20035;-64
2022/10/30 05:14:23;;;;;;;7.97;4.00;;;13.70;92.70;;;;;;4975994;28;20074;-64
2022/10/30 05:16:49;;;;;;;9.75;4.18;;;13.70;92.70;;;;;;4975899;28;20035;-64
2022/10/30 05:19:14;;;;;;;7.47;3.72;;;13.70;92.70;;;;;;4976267;28;20119;-64
2022/10/30 05:21:40;;;;;;;6.57;3.35;;;13.60;92.70;;;;;;4976155;28;20493;-64
2022/10/30 05:24:06;;;;;;;6.85;3.40;;;13.60;92.60;;;;;;4976154;28;20043;-64
2022/10/30 05:26:32;;;;;;;7.57;3.65;;;13.60;92.70;;;;;;4976109;28;20051;-64
2022/10/30 05:28:57;;;;;;;9.88;3.63;;;13.60;92.60;;;;;;4976204;28;20105;-64
2022/10/30 05:31:23;;;;;;;8.65;3.90;;;13.60;92.60;;;;;;4975860;28;20035;-64
2022/10/30 05:33:49;;;;;;;8.07;3.03;;;13.50;92.80;;;;;;4975602;28;20053;-64
2022/10/30 05:36:14;;;;;;;12.45;3.55;;;13.50;92.80;;;;;;4975832;28;20119;-65
2022/10/30 05:38:40;;;;;;;7.30;3.38;;;13.50;92.80;;;;;;4975917;28;20042;-64
2022/10/30 05:41:06;;;;;;;10.57;4.35;;;13.50;92.70;;;;;;4975651;28;20532;-64
2022/10/30 05:43:31;;;;;;;9.48;3.20;;;13.50;92.80;;;;;;4975794;28;20488;-65
2022/10/30 05:45:57;;;;;;;9.77;3.53;;;13.50;93.00;;;;;;4975440;28;20485;-64
2022/10/30 05:48:23;;;;;;;10.20;3.13;;;13.50;93.00;;;;;;4975193;28;20049;-65
2022/10/30 05:50:48;;;;;;;6.45;2.90;;;13.50;93.00;;;;;;4975709;28;20178;-64
2022/10/30 05:53:14;;;;;;;9.60;3.38;;;13.50;93.00;;;;;;4975538;28;20502;-64
2022/10/30 05:55:39;;;;;;;8.88;3.58;;;13.50;92.90;;;;;;4975645;28;20105;-64
2022/10/30 05:58:05;;;;;;;8.77;2.58;;;13.50;92.80;;;;;;4975278;28;20035;-64
2022/10/30 06:00:34;;;;;;;4.88;3.13;;;13.50;92.70;;;;;;4975013;28;20035;-64
2022/10/30 06:03:02;;;;;;;6.13;3.00;;;13.50;92.60;;;;;;4975366;28;20039;-64
2022/10/30 06:05:29;;;;;;;7.78;3.38;;;13.40;92.70;;;;;;4975674;28;20035;-64
2022/10/30 06:07:55;;;;;;;13.32;3.60;;;13.40;92.80;;;;;;4975050;28;20034;-64
2022/10/30 06:10:22;;;;;;;13.35;3.92;;;13.40;92.70;;;;;;4974995;28;20038;-64
2022/10/30 06:13:00;;;;;;;4.82;2.95;;;13.40;92.70;;;;;;4974665;28;20110;-65
2022/10/30 06:15:26;;;;;;;7.82;3.35;;;13.40;92.70;;;;;;4975109;28;20038;-63
2022/10/30 06:17:53;;;;;;;8.13;3.60;;;13.40;92.70;;;;;;4974758;28;20031;-63
2022/10/30 06:20:21;;;;;;;8.82;3.70;;;13.40;92.70;;;;;;4973180;28;20046;-63
2022/10/30 06:22:57;;;;;;;8.68;3.58;;;13.40;92.80;;;;;;4972821;28;20069;-67
2022/10/30 06:25:23;;;;;;;8.55;5.03;;;13.40;93.00;;;;;;4972418;28;20035;-66
2022/10/30 06:27:49;;;;;;;7.03;3.83;;;13.40;93.10;;;;;;4971793;28;20472;-63
2022/10/30 06:30:15;;;;;;;8.90;3.55;;;13.40;93.10;;;;;;4972403;28;20074;-64
2022/10/30 06:32:40;;;;;;;8.50;3.53;;;13.40;93.10;;;;;;4971829;28;20049;-64
2022/10/30 06:35:07;;;;;;;9.45;4.07;;;13.40;93.20;;;;;;4972385;28;20236;-64
2022/10/30 06:37:33;;;;;;;7.18;3.80;;;13.40;93.30;;;;;;4973968;28;20093;-63
2022/10/30 06:39:59;;;;;;;7.38;3.35;;;13.40;93.30;;;;;;4974381;28;20038;-63
2022/10/30 06:42:24;;;;;;;5.22;3.67;;;13.50;93.40;;;;;;4974540;28;20084;-63
2022/10/30 06:44:50;;;;;;;12.00;3.70;;;13.50;93.50;;;;;;4974470;28;20536;-64
2022/10/30 06:47:16;;;;;;;9.95;3.53;;;13.50;93.50;;;;;;4974684;28;20117;-64
2022/10/30 06:49:41;;;;;;;7.03;3.95;;;13.60;93.50;;;;;;4974230;28;20053;-65
2022/10/30 06:52:07;;;;;;;7.00;3.70;;;13.60;93.40;;;;;;4974458;28;20109;-63
2022/10/30 06:54:33;;;;;;;14.43;4.22;;;13.70;93.40;;;;;;4974312;28;20044;-63
2022/10/30 06:56:59;;;;;;;11.88;4.00;;;13.70;93.50;;;;;;4972347;28;20026;-68
2022/10/30 06:59:25;;;;;;;7.80;3.63;;;13.80;93.50;;;;;;4954947;28;20138;-63
2022/10/30 07:01:50;;;;;;;7.53;4.18;;;13.90;93.60;;;;;;4956543;28;20103;-68
2022/10/30 07:04:16;;;;;;;8.35;4.25;;;14.00;93.70;;;;;;4973783;28;20058;-65
2022/10/30 07:06:42;;;;;;;9.45;3.38;;;14.00;93.70;;;;;;4971915;28;20033;-70
2022/10/30 07:09:07;;;;;;;14.48;3.58;;;14.10;93.70;;;;;;4955342;28;20045;-65
2022/10/30 07:11:33;;;;;;;13.05;4.07;;;14.20;93.70;;;;;;4954594;28;20032;-63
2022/10/30 07:13:59;;;;;;;6.32;3.60;;;14.30;93.70;;;;;;4954801;28;20522;-64
2022/10/30 07:16:24;;;;;;;10.07;3.60;;;14.30;93.70;;;;;;4954308;28;20024;-63
2022/10/30 07:18:50;;;;;;;10.48;3.58;;;14.40;93.80;;;;;;4954484;28;20039;-63
2022/10/30 07:21:16;;;;;;;12.25;3.08;;;14.40;93.70;;;;;;4954485;28;20090;-63
2022/10/30 07:23:42;;;;;;;10.60;3.30;;;14.50;93.90;;;;;;4954232;28;20429;-64
2022/10/30 07:26:07;;;;;;;10.18;3.67;;;14.50;94.00;;;;;;4957745;28;20039;-64
2022/10/30 07:28:33;;;;;;;11.18;3.58;;;14.50;94.00;;;;;;4958472;28;20062;-64
2022/10/30 07:30:59;;;;;;;11.75;3.88;;;14.60;93.90;;;;;;4958517;28;20368;-66
2022/10/30 07:33:24;;;;;;;11.02;3.65;;;14.70;94.00;;;;;;4957469;28;20105;-64
2022/10/30 07:35:50;;;;;;;11.73;3.00;;;14.70;94.00;;;;;;4958245;28;20390;-65
2022/10/30 07:38:16;;;;;;;10.25;3.08;;;14.70;94.10;;;;;;4956939;28;20046;-64
2022/10/30 07:40:42;;;;;;;5.25;2.75;;;14.80;94.10;;;;;;4957917;28;20118;-64
2022/10/30 07:43:12;;;;;;;9.00;2.50;;;14.90;93.70;;;;;;4958296;28;20125;-64
2022/10/30 07:45:38;;;;;;;7.45;3.30;;;14.90;93.80;;;;;;4958019;28;20035;-64
2022/10/30 07:48:04;;;;;;;11.20;2.78;;;14.90;93.90;;;;;;4958074;28;20494;-64
2022/10/30 07:50:30;;;;;;;7.93;2.85;;;15.00;93.90;;;;;;4957908;28;20054;-64
2022/10/30 07:52:56;;;;;;;6.78;2.70;;;15.00;94.00;;;;;;4958090;28;20450;-64
2022/10/30 07:55:22;;;;;;;9.27;2.70;;;15.10;93.90;;;;;;4957676;28;20150;-65
2022/10/30 07:57:48;;;;;;;8.73;2.88;;;15.20;93.90;;;;;;4958128;28;20430;-64
2022/10/30 08:00:15;;;;;;;7.22;2.50;;;15.20;93.80;;;;;;4958060;28;20344;-64
2022/10/30 08:02:41;;;;;;;9.18;2.72;;;15.30;93.70;;;;;;4957600;28;20036;-64
2022/10/30 08:05:07;;;;;;;9.77;2.90;;;15.30;93.50;;;;;;4957100;28;20110;-64
2022/10/30 08:07:35;;;;;;;7.70;2.22;;;15.40;93.60;;;;;;4957842;28;20061;-65
2022/10/30 08:10:01;;;;;;;6.20;2.75;;;15.50;93.50;;;;;;4957410;28;20039;-64
2022/10/30 08:12:26;;;;;;;6.80;2.80;;;15.50;93.00;;;;;;4957660;28;20114;-64
2022/10/30 08:14:53;;;;;;;8.27;2.42;;;15.60;93.00;;;;;;4957527;28;20073;-65
2022/10/30 08:17:19;;;;;;;9.20;2.70;;;15.70;92.80;;;;;;4957386;28;20027;-64
2022/10/30 08:19:45;;;;;;;6.53;2.38;;;15.80;92.80;;;;;;4957649;28;20186;-64
2022/10/30 08:22:11;;;;;;;10.90;2.75;;;15.90;93.00;;;;;;4956768;28;20566;-65
2022/10/30 08:24:37;;;;;;;6.43;2.20;;;15.90;92.90;;;;;;4956482;28;20043;-65
2022/10/30 08:27:03;;;;;;;12.77;2.60;;;15.90;92.80;;;;;;4957316;28;20510;-64
2022/10/30 08:29:29;;;;;;;8.73;2.92;;;16.00;92.80;;;;;;4957398;28;20046;-65
2022/10/30 08:31:55;;;;;;;14.77;2.67;;;16.20;95.60;;;;;;4957810;28;20067;-64
2022/10/30 08:34:21;;;;;;;9.20;2.83;;;16.30;95.10;;;;;;4957700;28;20079;-64
2022/10/30 08:36:48;;;;;;;10.48;2.50;;;16.20;92.80;;;;;;4957212;28;20162;-64
2022/10/30 08:39:14;;;;;;;9.18;3.22;;;16.30;92.60;;;;;;4957424;28;20042;-62
2022/10/30 08:41:40;;;;;;;8.52;2.80;;;16.40;92.60;;;;;;4957558;28;20037;-62
2022/10/30 08:44:06;;;;;;;12.05;2.60;;;16.40;92.50;;;;;;4957605;28;20401;-63
2022/10/30 08:46:31;;;;;;;5.72;2.53;;;16.50;92.50;;;;;;4957636;28;20091;-62
2022/10/30 08:48:57;;;;;;;8.05;2.70;;;16.50;92.30;;;;;;4957024;28;20054;-63
2022/10/30 08:51:23;;;;;;;7.88;2.75;;;16.60;92.30;;;;;;4957516;28;20430;-65
2022/10/30 08:53:48;;;;;;;8.63;2.53;;;16.60;92.30;;;;;;4957264;28;20048;-64
2022/10/30 08:56:15;;;;;;;10.40;2.70;;;16.70;92.30;;;;;;4957336;28;20027;-63
2022/10/30 08:58:41;;;;;;;4.80;2.50;;;16.80;92.10;;;;;;4957653;28;20481;-62
2022/10/30 09:01:06;;;;;;;13.57;2.33;;;16.90;92.20;;;;;;4957360;28;20046;-65
2022/10/30 09:03:32;;;;;;;10.40;2.45;;;16.90;92.10;;;;;;4957201;28;20071;-62
2022/10/30 09:06:00;;;;;;;10.52;2.85;;;17.00;91.80;;;;;;4957007;28;20493;-62
2022/10/30 09:08:26;;;;;;;8.35;2.35;;;17.10;91.70;;;;;;4957214;28;20118;-62
2022/10/30 09:10:55;;;;;;;7.75;2.65;;;17.20;91.80;;;;;;4957171;28;20032;-65
2022/10/30 09:13:21;;;;;;;11.63;2.30;;;17.20;91.50;;;;;;4957008;28;20046;-62
2022/10/30 09:15:47;;;;;;;8.18;2.03;;;17.30;91.10;;;;;;4957019;28;20031;-63
2022/10/30 09:18:13;;;;;;;6.90;2.40;;;17.40;90.90;;;;;;4957011;28;20493;-62
2022/10/30 09:20:38;;;;;;;10.30;2.20;;;17.40;90.50;;;;;;4956879;28;20561;-62
2022/10/30 09:23:04;;;;;;;10.43;2.75;;;17.50;90.30;;;;;;4956936;28;20043;-62
2022/10/30 09:25:29;;;;;;;9.13;2.50;;;17.50;90.10;;;;;;4956919;28;20035;-62
2022/10/30 09:27:55;;;;;;;7.43;2.08;;;17.60;89.90;;;;;;4956873;28;20123;-62
2022/10/30 09:30:21;;;;;;;15.60;3.13;;;17.70;89.90;;;;;;4956593;28;20102;-63
2022/10/30 09:33:13;;;;;;;7.85;2.35;;;17.80;89.50;;;;;;4955701;28;20043;-63
2022/10/30 09:35:39;;;;;;;11.70;2.40;;;17.90;89.60;;;;;;4952739;28;20043;-63
2022/10/30 09:38:05;;;;;;;10.55;2.53;;;18.00;89.30;;;;;;4954576;28;20398;-63
2022/10/30 09:40:42;;;;;;;10.23;2.40;;;18.00;88.90;;;;;;4956586;28;20094;-63
2022/10/30 09:43:25;;;;;;;7.28;2.30;;;18.10;89.00;;;;;;4956666;28;20048;-63
2022/10/30 09:46:22;;;;;;;7.88;2.45;;;18.20;89.30;;;;;;4956356;28;20042;-63
2022/10/30 09:48:56;;;;;;;10.15;3.13;;;18.30;89.30;;;;;;4952759;29;20070;-64
2022/10/30 09:51:45;;;;;;;9.65;2.55;;;18.40;88.60;;;;;;4956336;28;20111;-63
2022/10/30 09:54:20;;;;;;;5.38;2.33;;;18.50;88.30;;;;;;4952261;29;20074;-63
2022/10/30 09:56:53;;;;;;;12.02;2.63;;;18.60;88.40;;;;;;4956268;28;20067;-63
2022/10/30 09:59:24;;;;;;;12.30;2.92;;;18.60;88.10;;;;;;4953440;28;20050;-64
2022/10/30 10:02:12;;;;;;;9.93;3.45;;;18.70;87.60;;;;;;4953485;28;20043;-66
2022/10/30 10:04:53;;;;;;;10.52;2.50;;;18.90;89.60;;;;;;4951298;29;20371;-64
2022/10/30 10:07:24;;;;;;;10.27;2.70;;;18.90;87.00;;;;;;4955885;28;20042;-64
2022/10/30 10:09:54;;;;;;;9.43;2.55;;;19.10;91.10;;;;;;4956049;28;20043;-64
2022/10/30 10:12:30;;;;;;;14.23;3.10;;;19.10;86.60;;;;;;4956093;28;20050;-65
2022/10/30 10:14:57;;;;;;;12.32;2.63;;;19.10;85.70;;;;;;4955535;28;20053;-63
2022/10/30 10:17:33;;;;;;;6.40;2.75;;;19.30;85.20;;;;;;4956020;28;20371;-64
2022/10/30 10:20:00;;;;;;;9.75;2.40;;;19.30;83.20;;;;;;4955867;28;20082;-64
2022/10/30 10:22:41;;;;;;;9.23;2.80;;;19.40;83.80;;;;;;4955931;28;20458;-64
2022/10/30 10:25:13;;;;;;;7.72;2.22;;;19.50;83.90;;;;;;4955794;28;20027;-63
2022/10/30 10:27:57;;;;;;;8.63;2.23;;;19.50;83.40;;;;;;4955461;28;20035;-64
2022/10/30 10:30:24;;;;;;;15.63;2.97;;;;;;;;;;4955519;29;20354;-65
2022/10/30 10:33:10;;;;;;;6.10;2.25;;;19.70;79.00;;;;;;4955452;29;20438;-64
2022/10/30 10:35:42;;;;;;;16.67;2.10;;;19.80;80.50;;;;;;4955318;29;20046;-64
2022/10/30 10:38:23;;;;;;;7.90;2.08;;;19.80;80.90;;;;;;4955621;28;20393;-64
2022/10/30 10:40:56;;;;;;;5.88;2.10;;;19.90;79.20;;;;;;4955482;28;20034;-64
2022/10/30 10:43:54;;;;;;;7.43;2.10;;;20.00;75.60;;;;;;4955414;28;20036;-64
2022/10/30 10:46:40;;;;;;;7.90;1.70;;;20.00;77.10;;;;;;4955027;29;20047;-64
2022/10/30 10:49:13;;;;;;;7.88;2.15;;;20.10;78.00;;;;;;4955114;29;20055;-64
2022/10/30 10:51:43;;;;;;;13.15;2.10;;;20.20;77.60;;;;;;4955549;28;20389;-63
2022/10/30 10:54:18;;;;;;;8.20;2.17;;;20.30;78.20;;;;;;4955244;28;20054;-64
2022/10/30 10:56:47;;;;;;;6.40;2.00;;;20.30;79.50;;;;;;4955208;28;20035;-63
2022/10/30 10:59:54;;;;;;;9.35;2.20;;;20.40;78.40;;;;;;4955017;28;20039;-64
2022/10/30 11:02:53;;;;;;;7.35;2.30;;;20.50;77.00;;;;;;4950523;28;20043;-64
2022/10/30 11:05:35;;;;;;;7.03;2.03;;;20.60;77.80;;;;;;4955174;28;20046;-64
2022/10/30 11:08:11;;;;;;;13.15;2.60;;;20.70;78.00;;;;;;4955415;28;20111;-63
2022/10/30 11:10:38;;;;;;;8.60;2.20;;;20.80;77.20;;;;;;4955020;28;20035;-64
2022/10/30 11:13:04;;;;;;;13.05;2.78;;;20.80;76.60;;;;;;4954969;28;20548;-64
2022/10/30 11:15:57;;;;;;;10.55;2.30;;;20.90;75.00;;;;;;4954878;28;20032;-64
2022/10/30 11:18:23;;;;;;;6.25;2.03;;;20.90;70.20;;;;;;4955014;28;20036;-65
2022/10/30 11:21:01;;;;;;;14.05;2.92;;;21.00;72.60;;;;;;4955093;28;20039;-64
2022/10/30 11:23:29;;;;;;;10.38;2.53;;;21.10;73.70;;;;;;4954839;28;20031;-64
2022/10/30 11:25:55;;;;;;;9.48;2.28;;;21.10;74.30;;;;;;4954936;28;20039;-64
2022/10/30 11:28:42;;;;;;;13.80;2.53;;;21.20;75.10;;;;;;4955012;28;20043;-64
2022/10/30 11:31:21;;;;;;;8.23;2.08;;;21.30;74.70;;;;;;4954964;28;20035;-64
2022/10/30 11:33:48;;;;;;;7.88;2.42;;;21.40;74.30;;;;;;4954827;28;20094;-64
2022/10/30 11:36:15;;;;;;;4.97;2.30;;;21.40;73.10;;;;;;4954688;28;20063;-64
2022/10/30 11:38:41;;;;;;;5.97;2.05;;;21.50;73.80;;;;;;4955134;28;20048;-65
2022/10/30 11:41:09;;;;;;;10.70;2.25;;;21.60;74.60;;;;;;4954871;28;20032;-64
2022/10/30 11:43:37;;;;;;;11.82;2.53;;;21.60;73.30;;;;;;4954558;28;20505;-64
2022/10/30 11:46:08;;;;;;;6.10;1.92;;;21.70;72.90;;;;;;4954942;28;20031;-66
2022/10/30 11:48:38;;;;;;;9.25;1.95;;;21.70;73.50;;;;;;4954479;28;20393;-65
2022/10/30 11:51:04;;;;;;;11.43;2.20;;;21.80;74.00;;;;;;4954591;28;20086;-64
2022/10/30 11:53:37;;;;;;;8.20;2.28;;;21.80;73.10;;;;;;4954700;28;20047;-64
2022/10/30 11:56:11;;;;;;;13.38;2.38;;;21.90;73.90;;;;;;4954662;28;20176;-64
2022/10/30 11:58:52;;;;;;;9.10;2.10;;;21.90;72.70;;;;;;4952578;28;20040;-64
2022/10/30 12:01:26;;;;;;;7.20;2.40;;;21.90;70.90;;;;;;4951695;28;20051;-65
2022/10/30 12:03:53;;;;;;;6.65;2.72;;;22.00;71.30;;;;;;4953519;28;20073;-64
2022/10/30 12:06:28;;;;;;;8.25;2.20;;;22.00;71.80;;;;;;4954764;28;20051;-64
2022/10/30 12:09:12;;;;;;;11.70;2.65;;;22.10;71.60;;;;;;4954489;28;20090;-64
2022/10/30 12:11:42;;;;;;;7.13;2.10;;;22.10;70.20;;;;;;4956805;28;20043;-64
2022/10/30 12:14:28;;;;;;;9.15;2.25;;;22.10;72.00;;;;;;4958222;28;20035;-64
2022/10/30 12:16:55;;;;;;;17.08;2.38;;;22.20;71.80;;;;;;4958057;28;20031;-64
2022/10/30 12:19:24;;;;;;;15.25;2.78;;;22.20;71.80;;;;;;4958071;28;20049;-64
2022/10/30 12:22:00;;;;;;;5.28;2.08;;;22.30;72.50;;;;;;4957933;28;20037;-64
2022/10/30 12:24:30;;;;;;;11.13;2.50;;;22.30;73.10;;;;;;4955395;28;20051;-64
2022/10/30 12:27:01;;;;;;;9.98;2.40;;;22.40;74.00;;;;;;4955211;28;20114;-64
2022/10/30 12:29:54;;;;;;;13.27;2.50;;;22.40;74.80;;;;;;4956167;28;20035;-66
2022/10/30 12:32:25;;;;;;;9.25;2.53;;;22.50;74.70;;;;;;4957467;28;20524;-64
2022/10/30 12:34:56;;;;;;;11.07;2.47;;;22.50;73.60;;;;;;4957706;28;20043;-64
2022/10/30 12:37:40;;;;;;;8.98;2.60;;;22.50;74.30;;;;;;4957715;28;20031;-64
2022/10/30 12:40:29;;;;;;;11.18;2.85;;;22.50;73.80;;;;;;4957571;28;20035;-64
2022/10/30 12:43:22;;;;;;;8.55;2.72;;;22.50;74.00;;;;;;4957489;28;20042;-64
2022/10/30 12:45:50;;;;;;;9.98;2.75;;;22.50;73.90;;;;;;4956996;29;20039;-64
2022/10/30 12:48:43;;;;;;;8.40;2.85;;;22.50;74.20;;;;;;4957609;28;20039;-64
2022/10/30 12:51:19;;;;;;;5.75;2.55;;;22.50;74.40;;;;;;4957376;28;20543;-64
2022/10/30 12:53:57;;;;;;;7.38;2.42;;;22.60;74.60;;;;;;4956984;28;20039;-64
2022/10/30 12:56:37;;;;;;;15.25;3.35;;;22.50;74.30;;;;;;4957165;28;20482;-67